createdAt,value
2018-11-28T00:01:52.149Z,95963.17
2018-11-28T00:04:25.282Z,95968.48
2018-11-28T00:07:15.895Z,95969.34
2018-11-28T00:09:47.943Z,95975.47
2018-11-28T00:12:19.977Z,95984.17
2018-11-28T00:14:52.845Z,95981.50
2018-11-28T00:17:24.870Z,95979.06
2018-11-28T00:19:57.782Z,95974.31
2018-11-28T00:22:29.892Z,95973.34
2018-11-28T00:25:02.028Z,95973.62
2018-11-28T00:27:34.045Z,95966.38
2018-11-28T00:30:27.581Z,95961.67
2018-11-28T00:32:59.530Z,95960.64
2018-11-28T00:35:31.586Z,95962.42
2018-11-28T00:38:06.915Z,95970.03
2018-11-28T00:40:40.882Z,95978.41
2018-11-28T00:48:38.146Z,95985.33
2018-11-28T01:04:17.951Z,95988.97
2018-11-28T01:12:10.867Z,95989.48
2018-11-28T01:20:18.124Z,95997.52
2018-11-28T01:40:24.211Z,96009.47
2018-11-28T01:44:29.831Z,96014.05
2018-11-28T01:48:39.362Z,96013.06
2018-11-28T01:52:43.910Z,96019.05
2018-11-28T01:56:44.739Z,96015.27
2018-11-28T02:04:37.615Z,96004.41
2018-11-28T02:32:55.524Z,96013.27
2018-11-28T02:44:24.538Z,96023.51
2018-11-28T02:51:07.026Z,96038.69
2018-11-28T02:53:39.122Z,96036.83
2018-11-28T02:56:12.904Z,96037.19
2018-11-28T02:58:44.999Z,96041.89
2018-11-28T03:01:17.125Z,96035.08
2018-11-28T03:03:49.265Z,96036.34
2018-11-28T03:06:21.273Z,96039.72
2018-11-28T03:08:53.355Z,96041.39
2018-11-28T03:11:25.447Z,96043.96
2018-11-28T03:13:57.546Z,96043.61
2018-11-28T03:16:29.631Z,96049.99
2018-11-28T03:19:01.799Z,96044.45
2018-11-28T03:21:33.949Z,96051.00
2018-11-28T03:24:06.548Z,96048.50
2018-11-28T03:26:38.591Z,96046.95
2018-11-28T03:29:10.688Z,96045.41
2018-11-28T03:31:42.736Z,96048.33
2018-11-28T03:34:14.810Z,96049.00
2018-11-28T03:36:46.874Z,96053.63
2018-11-28T03:39:18.954Z,96056.43
2018-11-28T03:41:51.321Z,96056.05
2018-11-28T03:44:23.309Z,96047.79
2018-11-28T03:46:55.371Z,96051.67
2018-11-28T03:49:27.385Z,96054.83
2018-11-28T03:51:59.510Z,96056.59
2018-11-28T03:54:31.692Z,96065.30
2018-11-28T03:57:03.758Z,96066.41
2018-11-28T03:59:35.873Z,96068.66
2018-11-28T04:02:08.305Z,96072.03
2018-11-28T04:04:40.416Z,96068.35
2018-11-28T04:07:12.529Z,96076.52
2018-11-28T04:09:44.689Z,96076.86
2018-11-28T04:12:16.731Z,96072.48
2018-11-28T04:14:48.818Z,96067.63
2018-11-28T04:17:20.895Z,96066.97
2018-11-28T04:19:52.986Z,96060.78
2018-11-28T04:22:25.104Z,96069.30
2018-11-28T04:24:57.128Z,96059.09
2018-11-28T04:27:29.151Z,96056.91
2018-11-28T04:30:01.242Z,96057.55
2018-11-28T04:32:33.710Z,96060.04
2018-11-28T04:35:06.668Z,96062.98
2018-11-28T04:37:38.914Z,96058.39
2018-11-28T04:40:13.061Z,96054.87
2018-11-28T04:42:45.523Z,96066.46
2018-11-28T04:45:19.271Z,96065.29
2018-11-28T04:47:51.932Z,96064.65
2018-11-28T04:50:24.154Z,96072.45
2018-11-28T04:52:56.246Z,96070.95
2018-11-28T04:55:28.410Z,96073.06
2018-11-28T04:58:00.498Z,96068.33
2018-11-28T05:00:32.648Z,96076.52
2018-11-28T05:03:04.750Z,96069.45
2018-11-28T05:05:36.837Z,96073.27
2018-11-28T05:08:09.210Z,96070.23
2018-11-28T05:10:41.239Z,96065.69
2018-11-28T05:13:13.371Z,96071.36
2018-11-28T05:15:45.467Z,96061.75
2018-11-28T05:18:17.488Z,96066.80
2018-11-28T05:20:50.475Z,96067.70
2018-11-28T05:23:22.567Z,96070.91
2018-11-28T05:25:54.676Z,96073.66
2018-11-28T05:28:26.776Z,96069.20
2018-11-28T05:30:58.948Z,96073.27
2018-11-28T05:33:31.037Z,96068.02
2018-11-28T05:36:03.100Z,96078.45
2018-11-28T05:38:35.278Z,96079.02
2018-11-28T05:41:07.518Z,96084.48
2018-11-28T05:43:39.781Z,96089.77
2018-11-28T05:46:12.046Z,96092.70
2018-11-28T05:48:44.143Z,96095.56
2018-11-28T05:51:16.637Z,96096.48
2018-11-28T05:53:50.398Z,96099.05
2018-11-28T05:56:23.584Z,96099.39
2018-11-28T05:58:56.883Z,96098.52
2018-11-28T06:01:29.101Z,96105.48
2018-11-28T06:04:01.296Z,96102.55
2018-11-28T06:06:33.420Z,96102.34
2018-11-28T06:09:08.221Z,96096.95
2018-11-28T06:11:41.171Z,96105.41
2018-11-28T06:14:13.291Z,96105.48
2018-11-28T06:16:45.537Z,96106.44
2018-11-28T06:19:17.648Z,96103.68
2018-11-28T06:21:49.687Z,96102.35
2018-11-28T06:24:21.804Z,96109.22
2018-11-28T06:26:53.886Z,96107.89
2018-11-28T06:29:26.057Z,96109.55
2018-11-28T06:31:58.193Z,96109.22
2018-11-28T06:34:30.294Z,96116.55
2018-11-28T06:37:02.432Z,96114.47
2018-11-28T06:39:34.514Z,96125.11
2018-11-28T06:42:07.161Z,96120.60
2018-11-28T06:44:40.272Z,96121.13
2018-11-28T06:47:12.355Z,96116.85
2018-11-28T06:49:44.581Z,96129.99
2018-11-28T06:52:16.568Z,96132.87
2018-11-28T06:54:48.745Z,96133.08
2018-11-28T06:57:20.863Z,96136.12
2018-11-28T06:59:52.882Z,96143.95
2018-11-28T07:02:24.981Z,96155.17
2018-11-28T07:04:57.113Z,96154.61
2018-11-28T07:07:31.702Z,96157.67
2018-11-28T07:10:03.818Z,96155.32
2018-11-28T07:12:35.994Z,96160.85
2018-11-28T07:15:10.380Z,96164.82
2018-11-28T07:17:43.226Z,96166.25
2018-11-28T07:20:16.698Z,96163.77
2018-11-28T07:22:48.763Z,96171.41
2018-11-28T07:25:21.408Z,96166.19
2018-11-28T07:27:53.528Z,96166.24
2018-11-28T07:30:25.937Z,96176.16
2018-11-28T07:32:59.338Z,96172.14
2018-11-28T07:35:31.488Z,96169.16
2018-11-28T07:38:03.571Z,96165.66
2018-11-28T07:40:36.072Z,96167.73
2018-11-28T07:43:15.526Z,96170.93
2018-11-28T07:45:52.677Z,96179.64
2018-11-28T07:48:24.920Z,96166.17
2018-11-28T07:50:57.918Z,96166.97
2018-11-28T07:53:30.096Z,96177.02
2018-11-28T07:56:02.217Z,96181.20
2018-11-28T07:58:34.271Z,96176.45
2018-11-28T08:01:07.003Z,96176.79
2018-11-28T08:03:39.130Z,96168.78
2018-11-28T08:06:11.224Z,96177.79
2018-11-28T08:08:43.366Z,96177.62
2018-11-28T08:11:15.515Z,96182.90
2018-11-28T08:13:47.604Z,96188.17
2018-11-28T08:16:19.714Z,96183.86
2018-11-28T08:18:51.721Z,96178.52
2018-11-28T08:21:23.861Z,96181.52
2018-11-28T08:23:55.958Z,96183.50
2018-11-28T08:26:27.987Z,96180.47
2018-11-28T08:29:00.060Z,96186.19
2018-11-28T08:31:32.064Z,96185.24
2018-11-28T08:34:05.050Z,96182.91
2018-11-28T08:36:37.171Z,96182.36
2018-11-28T08:39:10.685Z,96188.39
2018-11-28T08:41:42.810Z,96189.07
2018-11-28T08:44:14.955Z,96181.73
2018-11-28T08:46:49.923Z,96180.86
2018-11-28T08:49:22.272Z,96191.69
2018-11-28T08:51:54.452Z,96198.66
2018-11-28T08:54:26.901Z,96195.36
2018-11-28T08:56:59.473Z,96198.70
2018-11-28T08:59:31.885Z,96203.98
2018-11-28T09:02:04.051Z,96201.05
2018-11-28T09:04:36.200Z,96200.69
2018-11-28T09:07:08.566Z,96205.85
2018-11-28T09:09:40.658Z,96193.64
2018-11-28T09:12:12.746Z,96191.19
2018-11-28T09:14:44.931Z,96198.70
2018-11-28T09:17:17.032Z,96199.61
2018-11-28T09:19:49.140Z,96202.63
2018-11-28T09:22:21.230Z,96203.22
2018-11-28T09:24:53.402Z,96209.61
2018-11-28T09:27:25.486Z,96208.53
2018-11-28T09:29:57.575Z,96210.59
2018-11-28T09:32:29.798Z,96217.06
2018-11-28T09:35:01.895Z,96225.50
2018-11-28T09:37:33.994Z,96218.23
2018-11-28T09:40:11.591Z,96218.81
2018-11-28T09:42:43.812Z,96213.71
2018-11-28T09:45:17.308Z,96216.99
2018-11-28T09:47:49.662Z,96220.02
2018-11-28T09:50:23.370Z,96219.59
2018-11-28T09:52:55.575Z,96219.78
2018-11-28T09:55:30.892Z,96228.58
2018-11-28T09:58:03.005Z,96215.48
2018-11-28T10:00:35.092Z,96221.91
2018-11-28T10:03:07.238Z,96219.06
2018-11-28T10:05:39.356Z,96222.83
2018-11-28T10:08:11.435Z,96222.61
2018-11-28T10:10:43.503Z,96218.80
2018-11-28T10:13:15.866Z,96219.17
2018-11-28T10:15:47.985Z,96217.57
2018-11-28T10:18:20.168Z,96219.27
2018-11-28T10:20:52.282Z,96214.81
2018-11-28T10:23:24.331Z,96211.38
2018-11-28T10:25:56.455Z,96219.11
2018-11-28T10:28:28.655Z,96211.56
2018-11-28T10:31:00.702Z,96202.30
2018-11-28T10:33:32.983Z,96202.66
2018-11-28T10:36:05.103Z,96204.02
2018-11-28T10:38:37.208Z,96199.10
2018-11-28T10:41:09.454Z,96195.96
2018-11-28T10:43:41.596Z,96198.55
2018-11-28T10:46:14.633Z,96195.67
2018-11-28T10:48:46.816Z,96185.66
2018-11-28T10:51:18.910Z,96189.58
2018-11-28T10:53:51.038Z,96188.78
2018-11-28T10:56:23.106Z,96190.16
2018-11-28T10:58:55.318Z,96201.39
2018-11-28T11:01:27.694Z,96196.75
2018-11-28T11:04:15.310Z,96195.23
2018-11-28T11:07:05.072Z,96189.14
2018-11-28T11:09:54.736Z,96193.45
2018-11-28T11:12:43.808Z,96199.78
2018-11-28T11:15:15.943Z,96194.28
2018-11-28T11:17:48.248Z,96197.44
2018-11-28T11:20:20.586Z,96203.14
2018-11-28T11:22:52.686Z,96205.87
2018-11-28T11:25:24.895Z,96201.83
2018-11-28T11:27:57.192Z,96198.06
2018-11-28T11:30:29.298Z,96193.42
2018-11-28T11:33:01.377Z,96188.56
2018-11-28T11:35:33.498Z,96180.81
2018-11-28T11:38:05.606Z,96181.66
2018-11-28T11:40:37.708Z,96177.38
2018-11-28T11:43:10.354Z,96183.30
2018-11-28T11:45:42.454Z,96188.89
2018-11-28T11:48:14.560Z,96179.34
2018-11-28T11:50:46.684Z,96186.28
2018-11-28T11:53:18.758Z,96189.95
2018-11-28T11:55:51.064Z,96187.95
2018-11-28T11:58:23.176Z,96187.14
2018-11-28T12:00:55.334Z,96184.84
2018-11-28T12:03:27.500Z,96180.82
2018-11-28T12:06:00.860Z,96182.16
2018-11-28T12:08:33.846Z,96170.66
2018-11-28T12:11:07.080Z,96176.56
2018-11-28T12:13:39.194Z,96167.16
2018-11-28T12:16:11.404Z,96171.30
2018-11-28T12:18:43.565Z,96162.01
2018-11-28T12:21:15.682Z,96158.41
2018-11-28T12:23:47.896Z,96160.98
2018-11-28T12:26:19.991Z,96164.21
2018-11-28T12:28:52.230Z,96165.88
2018-11-28T12:31:24.371Z,96166.35
2018-11-28T12:33:56.618Z,96159.58
2018-11-28T12:36:28.733Z,96160.60
2018-11-28T12:39:01.029Z,96159.76
2018-11-28T12:41:34.784Z,96161.34
2018-11-28T12:44:06.953Z,96149.63
2018-11-28T12:46:39.066Z,96145.44
2018-11-28T12:49:11.144Z,96153.07
2018-11-28T12:51:43.244Z,96160.69
2018-11-28T12:54:15.321Z,96158.23
2018-11-28T12:56:47.486Z,96154.28
2018-11-28T12:59:19.569Z,96157.15
2018-11-28T13:01:51.667Z,96149.45
2018-11-28T13:04:23.753Z,96142.47
2018-11-28T13:06:55.844Z,96142.62
2018-11-28T13:09:27.934Z,96152.11
2018-11-28T13:12:00.219Z,96151.41
2018-11-28T13:14:32.428Z,96152.03
2018-11-28T13:17:04.552Z,96146.92
2018-11-28T13:19:36.665Z,96145.39
2018-11-28T13:22:08.988Z,96146.70
2018-11-28T13:24:41.161Z,96149.75
2018-11-28T13:27:13.290Z,96155.77
2018-11-28T13:29:45.520Z,96154.50
2018-11-28T13:32:17.644Z,96153.72
2018-11-28T13:34:49.624Z,96158.28
2018-11-28T13:37:21.740Z,96152.50
2018-11-28T13:39:53.841Z,96155.78
2018-11-28T13:42:25.845Z,96157.64
2018-11-28T13:44:57.974Z,96153.00
2018-11-28T13:47:30.056Z,96155.62
2018-11-28T13:50:02.334Z,96164.34
2018-11-28T13:52:34.440Z,96167.05
2018-11-28T13:55:37.509Z,96166.94
2018-11-28T13:57:45.099Z,96166.56
2018-11-28T14:00:17.294Z,96161.44
2018-11-28T14:02:49.541Z,96167.06
2018-11-28T14:05:21.521Z,96166.55
2018-11-28T14:07:53.797Z,96167.30
2018-11-28T14:10:26.164Z,96173.79
2018-11-28T14:12:58.560Z,96173.22
2018-11-28T14:15:30.735Z,96171.16
2018-11-28T14:18:10.682Z,96171.47
2018-11-28T14:20:42.810Z,96180.75
2018-11-28T14:23:15.054Z,96176.22
2018-11-28T14:25:47.252Z,96181.84
2018-11-28T14:28:19.421Z,96181.05
2018-11-28T14:30:51.806Z,96178.56
2018-11-28T14:33:23.868Z,96179.40
2018-11-28T14:35:56.030Z,96177.39
2018-11-28T14:38:28.098Z,96177.21
2018-11-28T14:41:00.219Z,96172.16
2018-11-28T14:43:32.801Z,96174.71
2018-11-28T14:46:04.987Z,96171.29
2018-11-28T14:48:37.175Z,96169.28
2018-11-28T14:51:09.337Z,96168.17
2018-11-28T14:53:41.467Z,96166.84
2018-11-28T14:56:13.615Z,96171.41
2018-11-28T14:58:45.747Z,96179.77
2018-11-28T15:01:17.931Z,96174.79
2018-11-28T15:03:50.046Z,96176.50
2018-11-28T15:06:44.469Z,96174.95
2018-11-28T15:09:34.118Z,96176.78
2018-11-28T15:12:12.667Z,96175.73
2018-11-28T15:14:45.338Z,96180.48
2018-11-28T15:17:17.550Z,96188.89
2018-11-28T15:19:49.645Z,96182.78
2018-11-28T15:22:21.921Z,96183.69
2018-11-28T15:24:53.975Z,96180.08
2018-11-28T15:27:26.584Z,96185.64
2018-11-28T15:29:58.873Z,96184.76
2018-11-28T15:32:31.006Z,96180.03
2018-11-28T15:35:03.254Z,96178.00
2018-11-28T15:37:35.364Z,96185.50
2018-11-28T15:40:08.260Z,96186.78
2018-11-28T15:42:41.156Z,96186.73
2018-11-28T15:45:13.275Z,96183.48
2018-11-28T15:47:45.569Z,96193.72
2018-11-28T15:50:17.884Z,96184.09
2018-11-28T15:52:50.076Z,96186.16
2018-11-28T15:55:22.177Z,96183.44
2018-11-28T15:57:54.297Z,96184.03
2018-11-28T16:00:27.123Z,96186.53
2018-11-28T16:02:59.339Z,96191.59
2018-11-28T16:05:31.428Z,96198.74
2018-11-28T16:08:03.474Z,96199.48
2018-11-28T16:10:42.678Z,96196.05
2018-11-28T16:13:19.452Z,96198.36
2018-11-28T16:15:56.517Z,96198.22
2018-11-28T16:18:28.559Z,96196.69
2018-11-28T16:21:00.664Z,96205.77
2018-11-28T16:23:32.803Z,96207.75
2018-11-28T16:26:04.890Z,96207.78
2018-11-28T16:28:36.977Z,96208.81
2018-11-28T16:31:09.062Z,96210.01
2018-11-28T16:33:41.212Z,96207.11
2018-11-28T16:36:13.559Z,96207.77
2018-11-28T16:38:45.673Z,96203.91
2018-11-28T16:41:17.895Z,96206.73
2018-11-28T16:43:50.003Z,96202.97
2018-11-28T16:46:22.317Z,96209.22
2018-11-28T16:48:54.716Z,96206.28
2018-11-28T16:51:26.796Z,96211.42
2018-11-28T16:53:58.963Z,96213.16
2018-11-28T16:56:31.108Z,96212.52
2018-11-28T16:59:03.194Z,96214.61
2018-11-28T17:01:35.302Z,96222.61
2018-11-28T17:04:07.909Z,96220.78
2018-11-28T17:06:40.027Z,96218.74
2018-11-28T17:09:12.471Z,96217.02
2018-11-28T17:11:44.617Z,96213.84
2018-11-28T17:14:16.754Z,96214.20
2018-11-28T17:16:49.111Z,96212.72
2018-11-28T17:19:21.299Z,96215.81
2018-11-28T17:21:53.474Z,96225.90
2018-11-28T17:24:25.677Z,96231.84
2018-11-28T17:27:04.611Z,96240.62
2018-11-28T17:29:37.524Z,96238.25
2018-11-28T17:32:11.298Z,96238.64
2018-11-28T17:34:49.214Z,96235.98
2018-11-28T17:37:21.991Z,96238.32
2018-11-28T17:39:54.101Z,96228.98
2018-11-28T17:42:26.195Z,96230.39
2018-11-28T17:44:58.213Z,96222.53
2018-11-28T17:47:30.335Z,96221.44
2018-11-28T17:50:02.379Z,96220.74
2018-11-28T17:52:34.550Z,96208.67
2018-11-28T17:55:08.280Z,96214.30
2018-11-28T17:57:40.416Z,96212.23
2018-11-28T18:00:20.207Z,96215.91
2018-11-28T18:02:52.280Z,96216.25
2018-11-28T18:05:24.322Z,96224.92
2018-11-28T18:07:56.549Z,96223.69
2018-11-28T18:10:29.139Z,96221.23
2018-11-28T18:13:12.653Z,96218.45
2018-11-28T18:16:05.000Z,96221.82
2018-11-28T18:18:37.848Z,96230.23
2018-11-28T18:21:10.255Z,96221.70
2018-11-28T18:23:43.321Z,96222.08
2018-11-28T18:26:18.475Z,96222.72
2018-11-28T18:28:50.554Z,96223.89
2018-11-28T18:31:22.724Z,96228.95
2018-11-28T18:33:55.608Z,96218.74
2018-11-28T18:36:28.291Z,96227.05
2018-11-28T18:39:00.392Z,96220.20
2018-11-28T18:41:32.474Z,96218.32
2018-11-28T18:44:04.898Z,96218.94
2018-11-28T18:46:36.989Z,96215.56
2018-11-28T18:49:09.197Z,96215.89
2018-11-28T18:51:41.306Z,96216.96
2018-11-28T18:54:13.433Z,96210.22
2018-11-28T18:56:45.572Z,96207.05
2018-11-28T18:59:17.667Z,96204.08
2018-11-28T19:01:49.688Z,96208.59
2018-11-28T19:04:22.081Z,96211.12
2018-11-28T19:06:54.165Z,96206.93
2018-11-28T19:09:43.683Z,96209.44
2018-11-28T19:12:18.244Z,96213.77
2018-11-28T19:14:50.452Z,96214.28
2018-11-28T19:17:22.536Z,96221.33
2018-11-28T19:19:54.634Z,96220.08
2018-11-28T19:22:26.706Z,96221.70
2018-11-28T19:24:58.822Z,96215.08
2018-11-28T19:27:31.106Z,96219.73
2018-11-28T19:30:03.336Z,96222.69
2018-11-28T19:32:36.348Z,96216.47
2018-11-28T19:35:10.102Z,96218.09
2018-11-28T19:37:43.343Z,96217.23
2018-11-28T19:40:27.083Z,96214.23
2018-11-28T19:42:59.027Z,96215.04
2018-11-28T19:45:31.009Z,96216.49
2018-11-28T19:48:03.051Z,96212.84
2018-11-28T19:50:36.521Z,96214.08
2018-11-28T19:53:10.059Z,96210.36
2018-11-28T19:55:43.106Z,96212.19
2018-11-28T19:58:15.085Z,96213.06
2018-11-28T20:00:48.544Z,96220.22
2018-11-28T20:03:20.675Z,96218.09
2018-11-28T20:05:52.812Z,96217.92
2018-11-28T20:08:24.877Z,96215.56
2018-11-28T20:10:57.121Z,96215.84
2018-11-28T20:13:29.334Z,96213.65
2018-11-28T20:16:01.545Z,96213.54
2018-11-28T20:18:33.620Z,96206.69
2018-11-28T20:21:05.737Z,96200.90
2018-11-28T20:23:37.812Z,96202.89
2018-11-28T20:26:09.940Z,96198.30
2018-11-28T20:28:42.361Z,96205.79
2018-11-28T20:31:14.412Z,96204.30
2018-11-28T20:33:46.617Z,96202.52
2018-11-28T20:36:18.708Z,96205.67
2018-11-28T20:38:50.782Z,96206.95
2018-11-28T20:41:22.904Z,96200.73
2018-11-28T20:43:54.992Z,96201.83
2018-11-28T20:46:27.098Z,96209.92
2018-11-28T20:48:59.287Z,96202.12
2018-11-28T20:51:31.342Z,96210.07
2018-11-28T20:54:04.962Z,96210.50
2018-11-28T20:56:37.732Z,96212.98
2018-11-28T20:59:09.824Z,96201.98
2018-11-28T21:01:41.995Z,96207.66
2018-11-28T21:04:14.192Z,96211.16
2018-11-28T21:06:46.318Z,96209.55
2018-11-28T21:09:18.432Z,96209.98
2018-11-28T21:11:50.686Z,96217.69
2018-11-28T21:14:22.790Z,96216.25
2018-11-28T21:16:54.949Z,96199.91
2018-11-28T21:19:27.129Z,96196.70
2018-11-28T21:21:59.239Z,96207.19
2018-11-28T21:24:31.320Z,96215.39
2018-11-28T21:27:03.473Z,96224.92
2018-11-28T21:29:35.438Z,96232.97
2018-11-28T21:32:07.621Z,96232.47
2018-11-28T21:34:39.836Z,96226.42
2018-11-28T21:37:11.918Z,96214.73
2018-11-28T21:39:50.555Z,96225.48
2018-11-28T21:42:22.658Z,96227.44
2018-11-28T21:44:54.816Z,96225.27
2018-11-28T21:47:26.936Z,96220.97
2018-11-28T21:49:59.029Z,96221.67
2018-11-28T21:52:31.706Z,96232.67
2018-11-28T21:55:03.798Z,96229.40
2018-11-28T21:57:35.901Z,96216.53
2018-11-28T22:00:28.584Z,96215.31
2018-11-28T22:03:00.774Z,96225.16
2018-11-28T22:05:32.880Z,96241.22
2018-11-28T22:08:05.212Z,96232.44
2018-11-28T22:10:37.280Z,96225.02
2018-11-28T22:13:09.386Z,96228.91
2018-11-28T22:15:41.469Z,96217.27
2018-11-28T22:18:13.567Z,96212.54
2018-11-28T22:20:45.686Z,96221.23
2018-11-28T22:23:17.761Z,96224.05
2018-11-28T22:25:49.929Z,96216.00
2018-11-28T22:28:22.023Z,96216.44
2018-11-28T22:30:54.096Z,96208.80
2018-11-28T22:33:26.323Z,96209.13
2018-11-28T22:35:58.399Z,96208.91
2018-11-28T22:38:30.551Z,96220.50
2018-11-28T22:41:02.664Z,96221.20
2018-11-28T22:43:34.764Z,96227.76
2018-11-28T22:46:07.405Z,96235.86
2018-11-28T22:48:39.415Z,96234.33
2018-11-28T22:51:11.753Z,96242.01
2018-11-28T22:53:43.849Z,96235.68
2018-11-28T22:56:15.999Z,96223.61
2018-11-28T22:58:48.078Z,96236.36
2018-11-28T23:01:32.211Z,96237.80
2018-11-28T23:04:04.334Z,96229.07
2018-11-28T23:06:36.405Z,96227.11
2018-11-28T23:09:10.514Z,96219.98
2018-11-28T23:11:42.663Z,96219.11
2018-11-28T23:14:14.777Z,96214.00
2018-11-28T23:16:46.740Z,96206.98
2018-11-28T23:19:18.840Z,96204.47
2018-11-28T23:21:51.011Z,96203.73
2018-11-28T23:24:23.246Z,96211.98
2018-11-28T23:26:55.430Z,96211.70
2018-11-28T23:29:27.576Z,96206.59
2018-11-28T23:32:00.498Z,96208.50
2018-11-28T23:34:32.618Z,96195.80
2018-11-28T23:37:04.725Z,96193.43
2018-11-28T23:39:36.897Z,96184.64
2018-11-28T23:42:09.191Z,96178.38
2018-11-28T23:44:41.266Z,96175.97
2018-11-28T23:47:13.364Z,96171.12
2018-11-28T23:49:45.555Z,96171.30
2018-11-28T23:52:17.598Z,96165.25
2018-11-28T23:54:50.584Z,96159.67
2018-11-28T23:57:22.654Z,96159.62
2018-11-28T23:59:54.628Z,96161.58
